This is the latest recevied weather packets stored in our database for station/object DB0GIS-11. If no packets are shown the sender has not sent any weather packets the latest 10 day(s).
| Time | Temp. | Humidity | Pressure | Rain* | Wind** | Luminosity | Snow |
|---|---|---|---|---|---|---|---|
| 1777846663 | 15.56° C | 61% | 1009.8 hPa | 0 mm | - | - | - |
| 1777845457 | 15.56° C | 61% | 1009.9 hPa | 0 mm | - | - | - |
| 1777844847 | 15.56° C | 61% | 1009.8 hPa | 0 mm | - | - | - |
| 1777843657 | 15.56° C | 60% | 1009.9 hPa | 0 mm | - | - | - |
| 1777839453 | 16.67° C | 57% | 1009.9 hPa | 0 mm | - | - | - |
| 1777838265 | 17.22° C | 56% | 1010 hPa | 0 mm | - | - | - |
| 1777837055 | 17.22° C | 55% | 1009.8 hPa | 0 mm | - | - | - |
| 1777834055 | 18.33° C | 51% | 1009 hPa | 0 mm | - | - | - |
| 1777832263 | 18.89° C | 48% | 1008.7 hPa | 0 mm | - | - | - |
| 1777831654 | 18.89° C | 47% | 1008.6 hPa | 0 mm | - | - | - |
| 1777830462 | 19.44° C | 46% | 1008.5 hPa | 0 mm | - | - | - |
| 1777826253 | 21.11° C | 41% | 1008.5 hPa | 0 mm | - | - | - |
| 1777825072 | 21.11° C | 41% | 1008.5 hPa | 0 mm | - | - | - |
| 1777824488 | 21.11° C | 41% | 1008.5 hPa | 0 mm | - | - | - |
| 1777823848 | 21.67° C | 42% | 1008.5 hPa | 0 mm | - | - | - |
| 1777822045 | 21.67° C | 45% | 1008.6 hPa | 0 mm | - | - | - |
| 1777818450 | 21.67° C | 45% | 1008.8 hPa | 0 mm | - | - | - |
| 1777815452 | 21.67° C | 41% | 1009.3 hPa | 0 mm | - | - | - |
| 1777814255 | 21.67° C | 40% | 1009.7 hPa | 0 mm | - | - | - |
| 1777812448 | 22.22° C | 37% | 1010.1 hPa | 0 mm | - | - | - |
| 1777811249 | 22.78° C | 39% | 1009.9 hPa | 0 mm | - | - | - |
| 1777807656 | 21.11° C | 55% | 1010.1 hPa | 0 mm | - | - | - |
| 1777807057 | 20.56° C | 56% | 1010.2 hPa | 0 mm | - | - | - |
| 1777803454 | 18.33° C | 58% | 1010.7 hPa | 0 mm | - | - | - |
| 1777799854 | 18.33° C | 58% | 1011.2 hPa | 0 mm | - | - | - |
* Rain latest hour (hover to see other rain measurements)
** Current wind speed in m/s (hover to see current wind gust speed)